createdAt,value
2023-04-18T00:01:01.862Z,51.67
2023-04-18T00:03:05.436Z,51.61
2023-04-18T00:05:09.550Z,51.54
2023-04-18T00:07:15.036Z,51.63
2023-04-18T00:09:18.431Z,51.76
2023-04-18T00:11:21.795Z,51.81
2023-04-18T00:13:28.393Z,51.88
2023-04-18T00:15:32.228Z,51.67
2023-04-18T00:17:39.576Z,51.70
2023-04-18T00:19:43.284Z,51.71
2023-04-18T00:21:47.020Z,51.78
2023-04-18T00:23:50.774Z,51.48
2023-04-18T00:25:54.067Z,51.43
2023-04-18T00:27:57.395Z,51.32
2023-04-18T00:30:00.823Z,51.08
2023-04-18T00:32:04.116Z,51.19
2023-04-18T00:34:08.891Z,50.86
2023-04-18T00:36:12.279Z,51.03
2023-04-18T00:38:17.075Z,50.79
2023-04-18T00:40:20.724Z,50.95
2023-04-18T00:42:25.377Z,50.97
2023-04-18T00:44:28.851Z,51.17
2023-04-18T00:46:32.288Z,51.18
2023-04-18T00:48:36.051Z,50.72
2023-04-18T00:50:42.244Z,51.13
2023-04-18T00:52:46.835Z,50.88
2023-04-18T00:54:50.736Z,50.87
2023-04-18T00:56:55.372Z,50.54
2023-04-18T00:58:59.270Z,51.11
2023-04-18T01:01:02.713Z,50.65
2023-04-18T01:03:08.622Z,50.91
2023-04-18T01:05:12.359Z,50.86
2023-04-18T01:07:17.046Z,50.75
2023-04-18T01:09:21.826Z,50.64
2023-04-18T01:11:25.379Z,51.02
2023-04-18T01:13:28.805Z,50.92
2023-04-18T01:15:32.437Z,50.94
2023-04-18T01:17:35.816Z,50.79
2023-04-18T01:19:39.408Z,50.96
2023-04-18T01:21:44.426Z,50.85
2023-04-18T01:23:52.251Z,50.81
2023-04-18T01:25:56.961Z,51.25
2023-04-18T01:28:02.520Z,51.40
2023-04-18T01:30:06.977Z,51.13
2023-04-18T01:32:10.331Z,51.19
2023-04-18T01:34:15.490Z,51.40
2023-04-18T01:36:19.076Z,51.31
2023-04-18T01:38:22.439Z,51.51
2023-04-18T01:40:26.023Z,51.96
2023-04-18T01:42:31.383Z,51.81
2023-04-18T01:44:34.691Z,52.10
2023-04-18T01:46:38.886Z,52.13
2023-04-18T01:48:42.340Z,52.17
2023-04-18T01:50:45.719Z,52.53
2023-04-18T01:52:49.027Z,52.39
2023-04-18T01:54:52.765Z,52.92
2023-04-18T01:56:56.084Z,52.63
2023-04-18T01:59:00.848Z,53.44
2023-04-18T02:01:04.816Z,53.51
2023-04-18T02:03:08.292Z,53.63
2023-04-18T02:05:11.804Z,53.98
2023-04-18T02:07:15.712Z,54.07
2023-04-18T02:09:19.162Z,54.12
2023-04-18T02:11:22.533Z,54.17
2023-04-18T02:13:25.956Z,54.21
2023-04-18T02:15:30.695Z,54.27
2023-04-18T02:17:35.565Z,54.85
2023-04-18T02:19:38.957Z,54.80
2023-04-18T02:21:44.505Z,55.06
2023-04-18T02:23:47.970Z,55.00
2023-04-18T02:25:52.885Z,55.45
2023-04-18T02:27:57.427Z,55.43
2023-04-18T02:30:00.775Z,55.41
2023-04-18T02:32:05.817Z,55.60
2023-04-18T02:34:09.565Z,55.88
2023-04-18T02:36:13.403Z,55.68
2023-04-18T02:38:18.911Z,56.41
2023-04-18T02:40:22.225Z,56.12
2023-04-18T02:42:25.608Z,56.79
2023-04-18T02:44:29.021Z,56.33
2023-04-18T02:46:32.391Z,56.72
2023-04-18T02:48:37.555Z,57.05
2023-04-18T02:50:41.908Z,57.17
2023-04-18T02:52:45.822Z,57.03
2023-04-18T02:54:49.126Z,57.24
2023-04-18T02:56:57.522Z,57.20
2023-04-18T02:59:32.911Z,57.63
2023-04-18T03:01:48.554Z,57.71
2023-04-18T03:03:57.962Z,57.85
2023-04-18T03:06:10.528Z,57.77
2023-04-18T03:08:14.472Z,58.16
2023-04-18T03:10:18.047Z,57.88
2023-04-18T03:12:21.539Z,58.28
2023-04-18T03:14:24.960Z,58.16
2023-04-18T03:16:32.168Z,58.62
2023-04-18T03:18:35.483Z,58.62
2023-04-18T03:20:40.952Z,59.02
2023-04-18T03:22:44.932Z,58.95
2023-04-18T03:24:49.436Z,59.10
2023-04-18T03:26:54.193Z,58.95
2023-04-18T03:29:02.767Z,59.05
2023-04-18T03:31:06.642Z,59.06
2023-04-18T03:33:14.802Z,59.48
2023-04-18T03:35:19.200Z,59.22
2023-04-18T03:37:23.961Z,59.43
2023-04-18T03:39:32.415Z,59.91
2023-04-18T03:41:36.302Z,59.98
2023-04-18T03:43:40.356Z,59.88
2023-04-18T03:45:44.352Z,59.73
2023-04-18T03:47:48.234Z,59.95
2023-04-18T03:49:54.150Z,59.93
2023-04-18T03:51:58.160Z,59.90
2023-04-18T03:54:02.891Z,60.34
2023-04-18T03:56:07.052Z,60.00
2023-04-18T03:58:23.898Z,60.43
2023-04-18T04:00:28.854Z,60.16
2023-04-18T04:02:38.243Z,60.46
2023-04-18T04:04:41.851Z,60.75
2023-04-18T04:06:47.212Z,60.50
2023-04-18T04:08:50.621Z,60.69
2023-04-18T04:10:59.420Z,60.79
2023-04-18T04:13:03.110Z,61.05
2023-04-18T04:15:12.859Z,61.21
2023-04-18T04:17:23.210Z,61.39
2023-04-18T04:19:29.674Z,61.20
2023-04-18T04:21:44.923Z,61.37
2023-04-18T04:23:55.152Z,61.63
2023-04-18T04:26:15.082Z,62.02
2023-04-18T04:28:26.268Z,61.95
2023-04-18T04:30:35.719Z,61.82
2023-04-18T04:32:39.195Z,62.25
2023-04-18T04:34:42.617Z,62.25
2023-04-18T04:36:48.519Z,62.53
2023-04-18T04:38:52.233Z,62.39
2023-04-18T04:41:00.123Z,63.01
2023-04-18T04:43:06.211Z,63.36
2023-04-18T04:45:13.835Z,63.48
2023-04-18T04:47:17.437Z,63.46
2023-04-18T04:49:21.114Z,63.40
2023-04-18T04:51:24.958Z,64.33
2023-04-18T04:53:30.352Z,64.03
2023-04-18T04:55:35.310Z,64.13
2023-04-18T04:57:40.824Z,63.62
2023-04-18T05:00:01.742Z,64.21
2023-04-18T05:02:05.635Z,64.03
2023-04-18T05:04:09.100Z,63.73
2023-04-18T05:06:13.999Z,63.89
2023-04-18T05:08:17.352Z,63.95
2023-04-18T05:10:21.027Z,64.29
2023-04-18T05:12:24.572Z,64.20
2023-04-18T05:14:27.954Z,64.13
2023-04-18T05:16:32.879Z,64.26
2023-04-18T05:18:39.047Z,64.61
2023-04-18T05:20:42.380Z,64.67
2023-04-18T05:22:45.804Z,65.25
2023-04-18T05:24:49.154Z,65.86
2023-04-18T05:26:52.575Z,66.25
2023-04-18T05:28:56.037Z,66.00
2023-04-18T05:31:02.073Z,66.34
2023-04-18T05:33:06.920Z,66.04
2023-04-18T05:35:10.772Z,65.99
2023-04-18T05:37:14.187Z,66.17
2023-04-18T05:39:17.703Z,66.73
2023-04-18T05:41:21.182Z,66.32
2023-04-18T05:43:25.452Z,66.77
2023-04-18T05:45:28.794Z,67.11
2023-04-18T05:47:33.534Z,67.09
2023-04-18T05:49:38.309Z,66.74
2023-04-18T05:51:41.655Z,66.68
2023-04-18T05:53:45.087Z,66.63
2023-04-18T05:55:48.893Z,66.96
2023-04-18T05:57:52.421Z,67.13
2023-04-18T05:59:55.777Z,67.06
2023-04-18T06:01:59.096Z,67.36
2023-04-18T06:04:02.535Z,67.07
2023-04-18T06:06:07.641Z,67.08
2023-04-18T06:08:11.088Z,67.36
2023-04-18T06:10:15.723Z,67.55
2023-04-18T06:12:19.019Z,67.40
2023-04-18T06:14:22.513Z,67.28
2023-04-18T06:16:26.161Z,67.11
2023-04-18T06:18:29.586Z,66.89
2023-04-18T06:20:32.994Z,67.11
2023-04-18T06:22:37.766Z,66.72
2023-04-18T06:24:41.251Z,66.93
2023-04-18T06:26:44.769Z,66.93
2023-04-18T06:28:48.105Z,66.97
2023-04-18T06:30:51.824Z,66.55
2023-04-18T06:32:55.201Z,66.47
2023-04-18T06:34:58.708Z,65.65
2023-04-18T06:37:02.075Z,66.01
2023-04-18T06:39:06.858Z,67.10
2023-04-18T06:41:10.161Z,66.39
2023-04-18T06:43:13.562Z,67.96
2023-04-18T06:45:17.276Z,65.15
2023-04-18T06:47:20.716Z,64.30
2023-04-18T06:49:26.503Z,64.26
2023-04-18T06:51:30.118Z,64.24
2023-04-18T06:53:33.527Z,64.17
2023-04-18T06:55:38.275Z,63.81
2023-04-18T06:57:42.614Z,63.86
2023-04-18T06:59:46.002Z,63.17
2023-04-18T07:01:49.540Z,63.22
2023-04-18T07:03:52.952Z,63.31
2023-04-18T07:05:56.591Z,62.28
2023-04-18T07:08:00.141Z,62.25
2023-04-18T07:10:03.513Z,62.58
2023-04-18T07:12:08.649Z,61.98
2023-04-18T07:14:12.968Z,62.09
2023-04-18T07:16:16.676Z,61.68
2023-04-18T07:18:30.222Z,62.34
2023-04-18T07:20:38.058Z,61.90
2023-04-18T07:22:41.983Z,62.17
2023-04-18T07:24:45.333Z,61.62
2023-04-18T07:26:48.709Z,61.76
2023-04-18T07:28:53.452Z,61.90
2023-04-18T07:30:57.890Z,61.71
2023-04-18T07:33:01.266Z,61.31
2023-04-18T07:35:05.254Z,61.42
2023-04-18T07:37:08.781Z,61.25
2023-04-18T07:39:12.189Z,61.18
2023-04-18T07:41:15.677Z,61.37
2023-04-18T07:43:20.794Z,61.27
2023-04-18T07:45:25.781Z,61.21
2023-04-18T07:47:30.559Z,61.23
2023-04-18T07:49:35.737Z,61.17
2023-04-18T07:51:39.100Z,61.00
2023-04-18T07:53:43.556Z,61.02
2023-04-18T07:55:47.220Z,61.17
2023-04-18T07:57:50.579Z,61.17
2023-04-18T07:59:54.153Z,61.27
2023-04-18T08:01:58.893Z,61.50
2023-04-18T08:04:02.504Z,61.65
2023-04-18T08:06:06.893Z,61.71
2023-04-18T08:08:11.510Z,61.39
2023-04-18T08:10:14.806Z,61.36
2023-04-18T08:12:18.265Z,61.05
2023-04-18T08:14:21.653Z,61.00
2023-04-18T08:16:25.575Z,60.54
2023-04-18T08:18:30.386Z,61.19
2023-04-18T08:20:34.313Z,60.89
2023-04-18T08:22:44.189Z,60.70
2023-04-18T08:25:05.446Z,60.47
2023-04-18T08:27:09.127Z,60.36
2023-04-18T08:29:12.883Z,59.72
2023-04-18T08:31:17.120Z,60.32
2023-04-18T08:33:20.473Z,60.14
2023-04-18T08:35:25.373Z,59.83
2023-04-18T08:37:29.275Z,59.61
2023-04-18T08:39:32.588Z,59.79
2023-04-18T08:41:37.977Z,60.04
2023-04-18T08:43:41.733Z,59.92
2023-04-18T08:45:46.114Z,59.66
2023-04-18T08:47:50.050Z,59.90
2023-04-18T08:49:53.825Z,59.38
2023-04-18T08:52:01.077Z,59.19
2023-04-18T08:54:08.001Z,59.22
2023-04-18T08:56:14.624Z,58.96
2023-04-18T08:58:22.262Z,59.15
2023-04-18T09:00:25.694Z,58.96
2023-04-18T09:02:38.887Z,59.44
2023-04-18T09:04:44.943Z,58.98
2023-04-18T09:06:53.476Z,59.17
2023-04-18T09:08:59.562Z,59.52
2023-04-18T09:11:28.666Z,59.05
2023-04-18T09:13:40.281Z,59.84
2023-04-18T09:15:56.073Z,59.75
2023-04-18T09:18:02.652Z,59.48
2023-04-18T09:20:10.144Z,60.27
2023-04-18T09:22:14.285Z,59.80
2023-04-18T09:24:24.000Z,59.61
2023-04-18T09:26:36.236Z,59.30
2023-04-18T09:28:41.226Z,59.26
2023-04-18T09:30:44.656Z,59.51
2023-04-18T09:32:59.352Z,59.13
2023-04-18T09:35:05.308Z,58.33
2023-04-18T09:37:10.962Z,58.21
2023-04-18T09:39:29.120Z,58.46
2023-04-18T09:41:33.028Z,58.38
2023-04-18T09:43:36.386Z,58.07
2023-04-18T09:45:40.154Z,58.15
2023-04-18T09:47:43.595Z,57.92
2023-04-18T09:49:48.422Z,58.29
2023-04-18T09:51:54.345Z,58.37
2023-04-18T09:53:57.925Z,58.15
2023-04-18T09:56:04.490Z,58.28
2023-04-18T09:58:08.778Z,59.18
2023-04-18T10:00:17.798Z,59.50
2023-04-18T10:02:23.568Z,59.12
2023-04-18T10:04:28.979Z,58.68
2023-04-18T10:06:35.430Z,58.52
2023-04-18T10:08:40.895Z,57.79
2023-04-18T10:10:44.832Z,56.89
2023-04-18T10:12:51.603Z,55.44
2023-04-18T10:14:55.953Z,55.46
2023-04-18T10:17:01.027Z,55.96
2023-04-18T10:19:25.853Z,55.83
2023-04-18T10:21:30.909Z,55.79
2023-04-18T10:23:39.275Z,55.83
2023-04-18T10:25:50.085Z,55.22
2023-04-18T10:27:59.643Z,55.56
2023-04-18T10:30:02.976Z,56.13
2023-04-18T10:32:07.434Z,56.61
2023-04-18T10:34:17.463Z,56.98
2023-04-18T10:36:21.374Z,56.82
2023-04-18T10:38:25.020Z,57.23
2023-04-18T10:40:33.911Z,57.58
2023-04-18T10:43:00.468Z,56.97
2023-04-18T10:45:18.515Z,57.78
2023-04-18T10:47:25.823Z,58.13
2023-04-18T10:49:32.863Z,57.56
2023-04-18T10:51:36.429Z,56.98
2023-04-18T10:53:40.834Z,55.96
2023-04-18T10:55:49.743Z,54.73
2023-04-18T10:57:56.064Z,53.63
2023-04-18T11:00:01.185Z,53.65
2023-04-18T11:02:19.471Z,54.50
2023-04-18T11:04:22.957Z,54.91
2023-04-18T11:06:27.194Z,56.08
2023-04-18T11:08:31.555Z,56.63
2023-04-18T11:10:35.101Z,56.62
2023-04-18T11:12:40.404Z,56.69
2023-04-18T11:14:44.777Z,56.40
2023-04-18T11:16:49.600Z,56.38
2023-04-18T11:18:53.036Z,56.47
2023-04-18T11:20:57.538Z,56.51
2023-04-18T11:23:01.807Z,56.17
2023-04-18T11:25:09.101Z,55.08
2023-04-18T11:27:13.675Z,54.47
2023-04-18T11:29:19.214Z,53.74
2023-04-18T11:31:24.644Z,52.52
2023-04-18T11:33:30.246Z,51.87
2023-04-18T11:35:38.244Z,52.74
2023-04-18T11:37:45.909Z,53.24
2023-04-18T11:39:49.480Z,52.94
2023-04-18T11:41:53.057Z,53.72
2023-04-18T11:43:57.318Z,53.84
2023-04-18T11:46:01.620Z,54.33
2023-04-18T11:48:06.012Z,54.34
2023-04-18T11:50:12.592Z,54.40
2023-04-18T11:52:16.107Z,53.73
2023-04-18T11:54:42.650Z,52.35
2023-04-18T11:56:49.682Z,52.80
2023-04-18T11:58:53.142Z,52.74
2023-04-18T12:00:56.523Z,52.87
2023-04-18T12:03:01.728Z,52.23
2023-04-18T12:05:06.299Z,51.96
2023-04-18T12:07:11.362Z,51.91
2023-04-18T12:09:14.841Z,51.90
2023-04-18T12:11:21.436Z,51.48
2023-04-18T12:13:32.620Z,51.16
2023-04-18T12:15:39.898Z,50.92
2023-04-18T12:17:45.166Z,50.55
2023-04-18T12:19:49.907Z,50.07
2023-04-18T12:21:57.733Z,49.90
2023-04-18T12:24:15.438Z,50.51
2023-04-18T12:26:22.947Z,51.27
2023-04-18T12:28:29.566Z,51.67
2023-04-18T12:30:37.464Z,51.91
2023-04-18T12:32:41.179Z,52.54
2023-04-18T12:34:44.585Z,53.03
2023-04-18T12:36:48.280Z,53.70
2023-04-18T12:38:51.944Z,53.50
2023-04-18T12:40:56.619Z,53.78
2023-04-18T12:43:01.578Z,54.11
2023-04-18T12:45:08.613Z,53.49
2023-04-18T12:47:11.956Z,52.56
2023-04-18T12:49:15.439Z,52.34
2023-04-18T12:51:18.755Z,52.37
2023-04-18T12:53:22.092Z,52.58
2023-04-18T12:55:26.052Z,52.55
2023-04-18T12:57:31.875Z,52.05
2023-04-18T12:59:35.446Z,52.82
2023-04-18T13:01:38.777Z,53.15
2023-04-18T13:03:42.207Z,52.96
2023-04-18T13:05:47.562Z,52.75
2023-04-18T13:07:58.665Z,52.07
2023-04-18T13:10:09.801Z,52.31
2023-04-18T13:12:13.139Z,52.86
2023-04-18T13:14:17.825Z,53.04
2023-04-18T13:16:21.445Z,53.01
2023-04-18T13:18:24.849Z,53.08
2023-04-18T13:20:28.438Z,53.29
2023-04-18T13:22:32.038Z,53.75
2023-04-18T13:24:36.991Z,53.92
2023-04-18T13:26:40.304Z,54.23
2023-04-18T13:28:43.655Z,54.27
2023-04-18T13:30:48.452Z,54.40
2023-04-18T13:32:51.784Z,54.17
2023-04-18T13:34:56.091Z,54.11
2023-04-18T13:36:59.804Z,54.15
2023-04-18T13:39:04.547Z,53.98
2023-04-18T13:41:12.905Z,53.98
2023-04-18T13:43:17.691Z,54.16
2023-04-18T13:45:21.635Z,54.18
2023-04-18T13:47:27.255Z,53.77
2023-04-18T13:49:30.994Z,53.80
2023-04-18T13:51:34.711Z,52.34
2023-04-18T13:53:38.043Z,51.06
2023-04-18T13:55:41.403Z,49.98
2023-04-18T13:57:44.696Z,49.02
2023-04-18T13:59:48.039Z,48.07
2023-04-18T14:01:52.362Z,48.23
2023-04-18T14:03:57.339Z,48.17
2023-04-18T14:06:00.805Z,48.10
2023-04-18T14:08:05.055Z,48.32
2023-04-18T14:10:09.304Z,48.77
2023-04-18T14:12:12.740Z,48.62
2023-04-18T14:14:16.091Z,49.12
2023-04-18T14:16:19.666Z,49.17
2023-04-18T14:18:24.549Z,49.39
2023-04-18T14:20:34.682Z,49.68
2023-04-18T14:22:38.092Z,49.54
2023-04-18T14:24:41.408Z,49.86
2023-04-18T14:26:44.973Z,49.48
2023-04-18T14:28:48.660Z,49.48
2023-04-18T14:30:52.743Z,49.42
2023-04-18T14:32:56.148Z,49.39
2023-04-18T14:34:59.894Z,49.18
2023-04-18T14:37:04.594Z,49.71
2023-04-18T14:39:08.300Z,49.66
2023-04-18T14:41:11.639Z,49.80
2023-04-18T14:43:15.057Z,49.64
2023-04-18T14:45:18.564Z,49.58
2023-04-18T14:47:24.244Z,49.40
2023-04-18T14:49:27.855Z,48.96
2023-04-18T14:51:31.282Z,49.34
2023-04-18T14:53:35.988Z,49.26
2023-04-18T14:55:39.424Z,49.51
2023-04-18T14:57:42.769Z,49.57
2023-04-18T14:59:46.142Z,50.00
2023-04-18T15:01:49.527Z,49.45
2023-04-18T15:03:53.624Z,48.53
2023-04-18T15:05:57.457Z,48.02
2023-04-18T15:08:01.107Z,45.98
2023-04-18T15:10:07.066Z,46.40
2023-04-18T15:12:10.425Z,46.75
2023-04-18T15:14:14.027Z,47.29
2023-04-18T15:16:17.736Z,47.68
2023-04-18T15:18:21.428Z,46.42
2023-04-18T15:20:25.118Z,47.10
2023-04-18T15:22:28.555Z,47.06
2023-04-18T15:24:31.895Z,47.18
2023-04-18T15:26:37.417Z,47.54
2023-04-18T15:28:40.809Z,48.05
2023-04-18T15:30:44.176Z,47.44
2023-04-18T15:32:48.387Z,46.85
2023-04-18T15:34:51.831Z,45.89
2023-04-18T15:36:55.176Z,46.98
2023-04-18T15:38:58.485Z,46.51
2023-04-18T15:41:01.873Z,45.18
2023-04-18T15:43:06.874Z,44.68
2023-04-18T15:45:11.603Z,44.16
2023-04-18T15:47:17.026Z,42.91
2023-04-18T15:49:20.866Z,41.77
2023-04-18T15:51:28.330Z,41.83
2023-04-18T15:53:31.866Z,41.25
2023-04-18T15:55:35.326Z,41.52
2023-04-18T15:57:38.774Z,42.31
2023-04-18T15:59:43.704Z,43.09
2023-04-18T16:01:47.196Z,43.75
2023-04-18T16:03:50.659Z,44.45
2023-04-18T16:05:54.125Z,44.37
2023-04-18T16:07:58.747Z,44.37
2023-04-18T16:10:03.662Z,43.84
2023-04-18T16:12:08.228Z,44.02
2023-04-18T16:14:11.689Z,43.60
2023-04-18T16:16:16.788Z,43.37
2023-04-18T16:18:20.164Z,43.25
2023-04-18T16:20:23.568Z,42.66
2023-04-18T16:22:26.948Z,42.14
2023-04-18T16:24:30.997Z,42.01
2023-04-18T16:26:34.401Z,41.09
2023-04-18T16:28:37.854Z,41.20
2023-04-18T16:30:43.703Z,41.63
2023-04-18T16:32:48.665Z,41.53
2023-04-18T16:34:53.084Z,42.07
2023-04-18T16:36:56.463Z,42.31
2023-04-18T16:38:59.768Z,42.63
2023-04-18T16:41:03.664Z,42.66
2023-04-18T16:43:07.024Z,42.92
2023-04-18T16:45:10.765Z,43.04
2023-04-18T16:47:14.143Z,43.02
2023-04-18T16:49:20.399Z,43.13
2023-04-18T16:51:23.746Z,43.41
2023-04-18T16:53:27.223Z,43.58
2023-04-18T16:55:30.560Z,43.75
2023-04-18T16:57:33.925Z,44.11
2023-04-18T16:59:37.364Z,44.46
2023-04-18T17:01:40.859Z,44.62
2023-04-18T17:03:44.652Z,44.80
2023-04-18T17:05:49.448Z,45.38
2023-04-18T17:07:52.929Z,45.64
2023-04-18T17:09:58.272Z,45.91
2023-04-18T17:12:01.815Z,45.94
2023-04-18T17:14:05.695Z,46.07
2023-04-18T17:16:09.210Z,46.11
2023-04-18T17:18:12.621Z,46.36
2023-04-18T17:20:17.000Z,46.33
2023-04-18T17:22:21.720Z,46.40
2023-04-18T17:24:25.130Z,46.70
2023-04-18T17:26:28.523Z,46.79
2023-04-18T17:28:31.813Z,47.08
2023-04-18T17:30:35.180Z,47.25
2023-04-18T17:32:42.823Z,47.14
2023-04-18T17:34:47.833Z,48.91
2023-04-18T17:36:51.253Z,49.23
2023-04-18T17:38:56.334Z,49.00
2023-04-18T17:41:00.809Z,47.84
2023-04-18T17:43:04.133Z,47.65
2023-04-18T17:45:09.653Z,49.00
2023-04-18T17:47:15.415Z,49.17
2023-04-18T17:49:21.890Z,48.90
2023-04-18T17:51:26.239Z,49.37
2023-04-18T17:53:31.994Z,48.67
2023-04-18T17:55:37.076Z,48.41
2023-04-18T17:57:40.437Z,48.51
2023-04-18T17:59:43.833Z,48.45
2023-04-18T18:01:47.384Z,48.80
2023-04-18T18:03:53.712Z,48.68
2023-04-18T18:05:57.281Z,49.20
2023-04-18T18:08:01.356Z,49.17
2023-04-18T18:10:06.335Z,49.34
2023-04-18T18:12:11.401Z,49.19
2023-04-18T18:14:14.874Z,49.08
2023-04-18T18:16:19.845Z,49.39
2023-04-18T18:18:24.126Z,49.63
2023-04-18T18:20:27.811Z,49.45
2023-04-18T18:22:31.261Z,49.68
2023-04-18T18:24:34.622Z,49.76
2023-04-18T18:26:38.002Z,49.80
2023-04-18T18:28:42.753Z,49.99
2023-04-18T18:30:47.750Z,50.11
2023-04-18T18:32:53.339Z,50.19
2023-04-18T18:34:56.879Z,50.24
2023-04-18T18:37:00.585Z,50.50
2023-04-18T18:39:03.985Z,50.52
2023-04-18T18:41:07.795Z,50.64
2023-04-18T18:43:11.151Z,50.74
2023-04-18T18:45:15.928Z,50.87
2023-04-18T18:47:19.936Z,50.89
2023-04-18T18:49:23.292Z,50.97
2023-04-18T18:51:27.073Z,50.96
2023-04-18T18:53:30.402Z,51.28
2023-04-18T18:55:33.690Z,51.46
2023-04-18T18:57:37.598Z,51.68
2023-04-18T18:59:41.523Z,51.74
2023-04-18T19:01:46.494Z,51.97
2023-04-18T19:03:50.136Z,52.21
2023-04-18T19:05:53.713Z,52.35
2023-04-18T19:07:57.192Z,52.70
2023-04-18T19:10:01.691Z,52.58
2023-04-18T19:12:06.065Z,52.56
2023-04-18T19:14:09.483Z,52.82
2023-04-18T19:16:13.104Z,52.60
2023-04-18T19:18:19.480Z,52.68
2023-04-18T19:20:23.695Z,52.88
2023-04-18T19:22:27.061Z,53.32
2023-04-18T19:24:31.798Z,53.40
2023-04-18T19:26:35.241Z,53.42
2023-04-18T19:28:38.919Z,53.55
2023-04-18T19:30:43.284Z,53.69
2023-04-18T19:32:46.767Z,53.59
2023-04-18T19:34:51.912Z,53.89
2023-04-18T19:36:55.301Z,53.85
2023-04-18T19:38:58.725Z,53.64
2023-04-18T19:41:02.172Z,53.84
2023-04-18T19:43:05.626Z,53.74
2023-04-18T19:45:11.268Z,54.02
2023-04-18T19:47:16.479Z,54.30
2023-04-18T19:49:19.921Z,54.33
2023-04-18T19:51:24.663Z,54.16
2023-04-18T19:53:28.036Z,54.19
2023-04-18T19:55:31.550Z,54.14
2023-04-18T19:57:38.979Z,53.89
2023-04-18T19:59:42.367Z,53.91
2023-04-18T20:01:46.017Z,54.04
2023-04-18T20:03:49.605Z,54.06
2023-04-18T20:05:53.097Z,54.23
2023-04-18T20:07:57.884Z,54.33
2023-04-18T20:10:01.492Z,54.52
2023-04-18T20:12:05.209Z,54.88
2023-04-18T20:14:09.943Z,54.91
2023-04-18T20:16:13.700Z,55.25
2023-04-18T20:18:17.124Z,55.42
2023-04-18T20:20:20.538Z,55.60
2023-04-18T20:22:24.813Z,55.62
2023-04-18T20:24:31.621Z,55.82
2023-04-18T20:26:34.986Z,55.84
2023-04-18T20:28:38.753Z,56.04
2023-04-18T20:30:43.086Z,57.46
2023-04-18T20:32:46.519Z,58.57
2023-04-18T20:34:49.937Z,58.95
2023-04-18T20:36:53.235Z,58.18
2023-04-18T20:38:56.590Z,58.16
2023-04-18T20:41:02.096Z,58.09
2023-04-18T20:43:06.720Z,57.95
2023-04-18T20:45:11.554Z,57.58
2023-04-18T20:47:15.897Z,56.74
2023-04-18T20:49:19.568Z,56.10
2023-04-18T20:51:22.899Z,55.85
2023-04-18T20:53:27.095Z,55.82
2023-04-18T20:55:30.940Z,56.00
2023-04-18T20:57:36.517Z,56.03
2023-04-18T20:59:39.851Z,56.53
2023-04-18T21:01:43.213Z,56.33
2023-04-18T21:03:46.879Z,56.45
2023-04-18T21:05:50.446Z,56.76
2023-04-18T21:07:53.763Z,57.05
2023-04-18T21:09:57.104Z,56.97
2023-04-18T21:12:00.446Z,57.02
2023-04-18T21:14:06.704Z,57.16
2023-04-18T21:16:10.834Z,57.10
2023-04-18T21:18:14.308Z,57.33
2023-04-18T21:20:17.673Z,57.53
2023-04-18T21:22:21.112Z,57.50
2023-04-18T21:24:24.500Z,57.87
2023-04-18T21:26:28.227Z,57.87
2023-04-18T21:28:31.560Z,58.21
2023-04-18T21:30:36.439Z,58.32
2023-04-18T21:32:39.868Z,58.19
2023-04-18T21:34:43.289Z,58.35
2023-04-18T21:36:46.584Z,58.40
2023-04-18T21:38:52.605Z,58.34
2023-04-18T21:40:55.975Z,58.28
2023-04-18T21:42:59.367Z,58.25
2023-04-18T21:45:02.788Z,58.47
2023-04-18T21:47:07.504Z,58.39
2023-04-18T21:49:11.153Z,58.52
2023-04-18T21:51:16.082Z,58.24
2023-04-18T21:53:19.360Z,57.99
2023-04-18T21:55:22.770Z,58.01
2023-04-18T21:57:26.128Z,57.90
2023-04-18T21:59:29.536Z,58.35
2023-04-18T22:01:34.374Z,57.93
2023-04-18T22:03:39.636Z,58.19
2023-04-18T22:05:44.063Z,58.35
2023-04-18T22:07:57.498Z,58.17
2023-04-18T22:10:05.710Z,58.14
2023-04-18T22:12:09.475Z,58.12
2023-04-18T22:14:14.521Z,58.43
2023-04-18T22:16:18.206Z,58.60
2023-04-18T22:18:21.884Z,58.39
2023-04-18T22:20:26.933Z,58.53
2023-04-18T22:22:30.401Z,58.54
2023-04-18T22:24:33.684Z,58.42
2023-04-18T22:26:37.129Z,58.46
2023-04-18T22:28:40.526Z,58.37
2023-04-18T22:30:43.863Z,58.29
2023-04-18T22:32:47.775Z,58.17
2023-04-18T22:34:51.138Z,58.04
2023-04-18T22:36:55.823Z,57.85
2023-04-18T22:38:59.130Z,58.01
2023-04-18T22:41:02.606Z,58.20
2023-04-18T22:43:05.991Z,58.45
2023-04-18T22:45:10.700Z,58.40
2023-04-18T22:47:14.275Z,58.53
2023-04-18T22:49:17.897Z,58.65
2023-04-18T22:51:23.373Z,58.87
2023-04-18T22:53:28.168Z,58.74
2023-04-18T22:55:31.510Z,58.80
2023-04-18T22:57:34.899Z,59.00
2023-04-18T22:59:38.443Z,58.90
2023-04-18T23:01:41.990Z,59.13
2023-04-18T23:03:45.534Z,58.99
2023-04-18T23:05:48.919Z,58.89
2023-04-18T23:07:52.232Z,58.99
2023-04-18T23:09:56.956Z,59.04
2023-04-18T23:12:00.295Z,59.10
2023-04-18T23:14:03.944Z,59.18
2023-04-18T23:16:08.560Z,59.07
2023-04-18T23:18:12.669Z,59.19
2023-04-18T23:20:16.433Z,59.18
2023-04-18T23:22:20.321Z,59.07
2023-04-18T23:24:23.639Z,59.33
2023-04-18T23:26:28.592Z,59.36
2023-04-18T23:28:32.031Z,59.40
2023-04-18T23:30:36.731Z,59.30
2023-04-18T23:32:40.714Z,59.44
2023-04-18T23:34:45.883Z,59.16
2023-04-18T23:36:49.350Z,60.52
2023-04-18T23:38:52.759Z,61.62
2023-04-18T23:40:56.062Z,60.48
2023-04-18T23:43:00.824Z,60.02
2023-04-18T23:45:05.775Z,59.67
2023-04-18T23:47:09.133Z,59.57
2023-04-18T23:49:12.638Z,59.54
2023-04-18T23:51:16.119Z,59.41
2023-04-18T23:53:20.387Z,59.50
2023-04-18T23:55:23.803Z,59.83
2023-04-18T23:57:27.281Z,59.49
2023-04-18T23:59:32.055Z,59.60
